createdAt,value
2023-04-24T00:01:09.938Z,0.60
2023-04-24T00:03:40.140Z,0.50
2023-04-24T00:06:09.066Z,0.52
2023-04-24T00:08:37.717Z,0.40
2023-04-24T00:11:05.828Z,0.45
2023-04-24T00:13:33.872Z,0.50
2023-04-24T00:16:01.748Z,0.50
2023-04-24T00:18:30.000Z,0.65
2023-04-24T00:20:59.705Z,0.40
2023-04-24T00:23:27.594Z,0.52
2023-04-24T00:25:55.471Z,0.40
2023-04-24T00:28:23.452Z,0.50
2023-04-24T00:30:51.403Z,0.40
2023-04-24T00:33:19.377Z,0.80
2023-04-24T00:35:47.286Z,0.63
2023-04-24T00:38:16.617Z,0.70
2023-04-24T00:40:44.493Z,0.70
2023-04-24T00:43:12.894Z,0.80
2023-04-24T00:45:40.811Z,0.80
2023-04-24T00:48:09.465Z,0.70
2023-04-24T00:50:38.724Z,0.50
2023-04-24T00:53:06.695Z,0.77
2023-04-24T00:55:36.261Z,0.90
2023-04-24T00:58:04.454Z,1.15
2023-04-24T01:00:33.000Z,0.85
2023-04-24T01:03:03.739Z,0.80
2023-04-24T01:05:31.938Z,0.95
2023-04-24T01:08:01.314Z,1.05
2023-04-24T01:10:31.578Z,0.85
2023-04-24T01:13:01.075Z,1.10
2023-04-24T01:15:29.129Z,1.00
2023-04-24T01:17:57.127Z,0.90
2023-04-24T01:20:27.137Z,0.80
2023-04-24T01:22:57.515Z,1.00
2023-04-24T01:25:26.758Z,1.10
2023-04-24T01:27:54.639Z,0.90
2023-04-24T01:30:22.567Z,1.13
2023-04-24T01:32:52.618Z,1.15
2023-04-24T01:35:21.060Z,1.02
2023-04-24T01:37:48.932Z,0.90
2023-04-24T01:40:18.966Z,1.00
2023-04-24T01:42:47.453Z,1.10
2023-04-24T01:45:15.400Z,1.10
2023-04-24T01:47:43.941Z,1.05
2023-04-24T01:50:12.083Z,1.15
2023-04-24T01:52:40.669Z,0.85
2023-04-24T01:55:09.660Z,1.00
2023-04-24T01:57:39.198Z,1.27
2023-04-24T02:00:08.690Z,1.45
2023-04-24T02:02:45.673Z,1.25
2023-04-24T02:05:15.466Z,1.20
2023-04-24T02:07:43.444Z,1.10
2023-04-24T02:10:12.189Z,1.30
2023-04-24T02:12:45.322Z,1.30
2023-04-24T02:15:13.728Z,1.45
2023-04-24T02:17:41.740Z,1.30
2023-04-24T02:20:10.218Z,1.50
2023-04-24T02:22:40.053Z,1.70
2023-04-24T02:25:09.063Z,1.30
2023-04-24T02:27:37.070Z,1.50
2023-04-24T02:30:10.222Z,1.65
2023-04-24T02:32:38.205Z,1.30
2023-04-24T02:35:07.061Z,1.50
2023-04-24T02:37:34.992Z,1.33
2023-04-24T02:40:02.946Z,1.73
2023-04-24T02:42:31.053Z,1.80
2023-04-24T02:44:59.436Z,1.70
2023-04-24T02:47:28.745Z,2.15
2023-04-24T02:49:57.064Z,2.10
2023-04-24T02:52:24.982Z,1.83
2023-04-24T02:54:55.403Z,1.80
2023-04-24T02:57:23.429Z,1.92
2023-04-24T02:59:51.324Z,1.90
2023-04-24T03:02:19.380Z,1.85
2023-04-24T03:04:49.433Z,2.10
2023-04-24T03:07:17.370Z,3.15
2023-04-24T03:09:45.479Z,3.10
2023-04-24T03:12:13.501Z,3.85
2023-04-24T03:14:41.364Z,4.60
2023-04-24T03:17:09.280Z,6.53
2023-04-24T03:19:37.444Z,6.83
2023-04-24T03:22:12.310Z,6.60
2023-04-24T03:24:41.464Z,7.03
2023-04-24T03:27:09.546Z,6.37
2023-04-24T03:29:57.580Z,7.20
2023-04-24T03:32:33.298Z,6.77
2023-04-24T03:35:01.910Z,6.83
2023-04-24T03:37:31.751Z,7.33
2023-04-24T03:40:13.728Z,7.37
2023-04-24T03:42:42.509Z,7.43
2023-04-24T03:45:11.746Z,7.27
2023-04-24T03:47:42.518Z,7.27
2023-04-24T03:50:13.057Z,7.27
2023-04-24T03:52:43.636Z,7.40
2023-04-24T03:55:14.988Z,7.30
2023-04-24T03:57:47.180Z,8.67
2023-04-24T04:00:22.319Z,7.83
2023-04-24T04:02:58.634Z,8.40
2023-04-24T04:05:26.710Z,8.50
2023-04-24T04:07:55.976Z,7.60
2023-04-24T04:10:24.558Z,8.97
2023-04-24T04:12:52.462Z,9.03
2023-04-24T04:15:20.412Z,9.40
2023-04-24T04:17:49.643Z,8.77
2023-04-24T04:20:18.157Z,8.43
2023-04-24T04:22:46.116Z,8.20
2023-04-24T04:25:20.931Z,8.67
2023-04-24T04:27:49.852Z,8.43
2023-04-24T04:30:17.754Z,8.77
2023-04-24T04:32:52.220Z,8.20
2023-04-24T04:35:28.829Z,8.93
2023-04-24T04:37:59.920Z,9.23
2023-04-24T04:40:52.701Z,9.37
2023-04-24T04:43:25.495Z,9.00
2023-04-24T04:45:55.959Z,8.70
2023-04-24T04:48:33.570Z,9.07
2023-04-24T04:51:03.425Z,9.50
2023-04-24T04:53:31.456Z,9.67
2023-04-24T04:56:00.882Z,9.87
2023-04-24T04:58:35.529Z,9.47
2023-04-24T05:01:04.875Z,9.77
2023-04-24T05:03:38.258Z,10.10
2023-04-24T05:06:10.244Z,9.47
2023-04-24T05:08:40.809Z,9.73
2023-04-24T05:11:14.586Z,9.90
2023-04-24T05:13:43.263Z,10.53
2023-04-24T05:16:16.880Z,10.57
2023-04-24T05:18:45.131Z,9.47
2023-04-24T05:21:19.025Z,10.23
2023-04-24T05:23:51.189Z,10.73
2023-04-24T05:26:29.352Z,9.80
2023-04-24T05:28:59.679Z,9.93
2023-04-24T05:31:27.634Z,9.73
2023-04-24T05:33:56.222Z,10.55
2023-04-24T05:36:24.241Z,9.50
2023-04-24T05:38:52.165Z,8.80
2023-04-24T05:41:21.312Z,7.67
2023-04-24T05:43:50.776Z,7.83
2023-04-24T05:46:18.944Z,7.28
2023-04-24T05:48:46.847Z,7.43
2023-04-24T05:51:14.737Z,6.43
2023-04-24T05:53:42.779Z,7.28
2023-04-24T05:56:11.082Z,6.90
2023-04-24T05:58:39.150Z,6.73
2023-04-24T06:01:08.540Z,6.40
2023-04-24T06:03:36.691Z,6.03
2023-04-24T06:06:05.526Z,6.50
2023-04-24T06:08:34.714Z,6.13
2023-04-24T06:11:04.687Z,6.27
2023-04-24T06:13:33.859Z,7.00
2023-04-24T06:16:21.666Z,7.40
2023-04-24T06:18:56.210Z,6.80
2023-04-24T06:21:24.211Z,7.43
2023-04-24T06:23:52.193Z,7.20
2023-04-24T06:26:20.149Z,7.03
2023-04-24T06:28:48.069Z,7.20
2023-04-24T06:31:15.964Z,6.80
2023-04-24T06:33:45.481Z,6.65
2023-04-24T06:36:14.252Z,5.78
2023-04-24T06:38:42.192Z,5.50
2023-04-24T06:41:10.162Z,5.60
2023-04-24T06:43:38.132Z,5.23
2023-04-24T06:46:06.354Z,5.18
2023-04-24T06:48:34.287Z,4.80
2023-04-24T06:51:03.729Z,4.75
2023-04-24T06:53:31.632Z,4.20
2023-04-24T06:55:59.950Z,4.57
2023-04-24T06:58:28.081Z,3.57
2023-04-24T07:00:56.015Z,3.77
2023-04-24T07:03:24.249Z,3.78
2023-04-24T07:05:52.413Z,3.33
2023-04-24T07:08:23.075Z,3.90
2023-04-24T07:10:52.347Z,3.40
2023-04-24T07:13:20.244Z,3.38
2023-04-24T07:15:50.067Z,3.40
2023-04-24T07:18:18.226Z,3.42
2023-04-24T07:20:46.500Z,3.53
2023-04-24T07:23:14.794Z,3.80
2023-04-24T07:25:44.176Z,5.00
2023-04-24T07:28:12.133Z,3.55
2023-04-24T07:30:40.456Z,3.93
2023-04-24T07:33:08.546Z,3.17
2023-04-24T07:35:37.482Z,2.83
2023-04-24T07:38:05.871Z,2.60
2023-04-24T07:40:33.850Z,2.30
2023-04-24T07:43:03.143Z,2.10
2023-04-24T07:45:32.173Z,2.20
2023-04-24T07:48:00.089Z,2.10
2023-04-24T07:50:28.017Z,2.00
2023-04-24T07:52:55.914Z,1.80
2023-04-24T07:55:25.751Z,2.13
2023-04-24T07:57:55.446Z,2.10
2023-04-24T08:00:24.744Z,2.37
2023-04-24T08:02:52.741Z,2.10
2023-04-24T08:05:21.019Z,2.23
2023-04-24T08:07:49.803Z,2.13
2023-04-24T08:10:18.011Z,2.23
2023-04-24T08:12:45.891Z,1.80
2023-04-24T08:15:13.929Z,1.60
2023-04-24T08:17:43.307Z,1.60
2023-04-24T08:20:14.673Z,1.70
2023-04-24T08:22:43.126Z,2.20
2023-04-24T08:25:12.312Z,1.50
2023-04-24T08:27:40.769Z,1.43
2023-04-24T08:30:09.652Z,1.10
2023-04-24T08:32:38.601Z,1.07
2023-04-24T08:35:10.164Z,0.80
2023-04-24T08:37:38.793Z,1.00
2023-04-24T08:40:12.525Z,0.87
2023-04-24T08:42:41.363Z,0.40
2023-04-24T08:45:10.580Z,0.40
2023-04-24T08:47:40.663Z,0.40
2023-04-24T08:50:11.271Z,0.30
2023-04-24T08:52:39.302Z,0.20
2023-04-24T08:55:08.059Z,0.40
2023-04-24T08:57:36.960Z,0.40
2023-04-24T09:00:05.717Z,0.40
2023-04-24T09:02:36.121Z,0.40
2023-04-24T09:05:06.313Z,0.37
2023-04-24T09:07:37.836Z,0.93
2023-04-24T09:10:06.624Z,0.60
2023-04-24T09:12:34.919Z,0.40
2023-04-24T09:15:04.443Z,0.27
2023-04-24T09:17:32.879Z,0.40
2023-04-24T09:20:00.920Z,0.60
2023-04-24T09:22:31.919Z,0.50
2023-04-24T09:25:07.925Z,0.50
2023-04-24T09:27:36.150Z,0.50
2023-04-24T09:30:04.966Z,0.60
2023-04-24T09:32:33.040Z,0.77
2023-04-24T09:35:09.173Z,0.80
2023-04-24T09:37:39.148Z,0.77
2023-04-24T09:40:13.654Z,0.80
2023-04-24T09:42:41.768Z,1.33
2023-04-24T09:45:17.635Z,1.50
2023-04-24T09:47:45.730Z,1.53
2023-04-24T09:50:15.739Z,1.50
2023-04-24T09:52:46.089Z,1.43
2023-04-24T09:55:19.690Z,1.40
2023-04-24T09:57:52.271Z,1.37
2023-04-24T10:00:23.590Z,1.60
2023-04-24T10:03:01.816Z,1.60
2023-04-24T10:05:31.386Z,1.30
2023-04-24T10:08:02.090Z,1.50
2023-04-24T10:10:31.767Z,1.50
2023-04-24T10:12:59.745Z,1.37
2023-04-24T10:15:28.934Z,2.10
2023-04-24T10:17:57.793Z,1.77
2023-04-24T10:20:27.683Z,1.50
2023-04-24T10:22:57.105Z,1.63
2023-04-24T10:25:26.194Z,1.60
2023-04-24T10:27:58.468Z,1.83
2023-04-24T10:30:26.986Z,1.80
2023-04-24T10:32:55.172Z,3.23
2023-04-24T10:35:25.403Z,2.63
2023-04-24T10:37:58.531Z,2.20
2023-04-24T10:40:29.356Z,2.40
2023-04-24T10:42:59.183Z,2.17
2023-04-24T10:45:27.862Z,2.83
2023-04-24T10:48:00.370Z,2.80
2023-04-24T10:50:30.276Z,2.73
2023-04-24T10:53:08.723Z,2.73
2023-04-24T10:55:48.012Z,3.07
2023-04-24T10:58:18.864Z,3.57
2023-04-24T11:00:58.551Z,3.33
2023-04-24T11:03:28.875Z,3.00
2023-04-24T11:06:02.171Z,3.13
2023-04-24T11:08:32.453Z,3.30
2023-04-24T11:11:03.519Z,3.23
2023-04-24T11:14:05.235Z,4.17
2023-04-24T11:16:35.101Z,4.03
2023-04-24T11:19:07.219Z,4.20
2023-04-24T11:21:43.048Z,4.50
2023-04-24T11:24:27.894Z,4.60
2023-04-24T11:26:57.653Z,5.20
2023-04-24T11:29:41.106Z,5.70
2023-04-24T11:32:26.600Z,5.67
2023-04-24T11:34:56.271Z,5.10
2023-04-24T11:37:25.693Z,6.68
2023-04-24T11:39:58.186Z,5.80
2023-04-24T11:42:26.641Z,6.10
2023-04-24T11:44:57.886Z,6.23
2023-04-24T11:47:34.254Z,7.43
2023-04-24T11:50:03.387Z,7.27
2023-04-24T11:52:32.146Z,8.43
2023-04-24T11:55:00.370Z,7.70
2023-04-24T11:57:30.015Z,6.47
2023-04-24T11:59:59.475Z,8.30
2023-04-24T12:02:29.866Z,7.10
2023-04-24T12:04:58.280Z,6.83
2023-04-24T12:07:26.569Z,7.17
2023-04-24T12:10:00.732Z,7.67
2023-04-24T12:12:29.934Z,8.30
2023-04-24T12:15:00.974Z,8.40
2023-04-24T12:17:31.291Z,8.50
2023-04-24T12:20:02.184Z,8.40
2023-04-24T12:22:30.519Z,6.23
2023-04-24T12:25:00.196Z,5.73
2023-04-24T12:27:28.442Z,5.70
2023-04-24T12:30:00.185Z,5.23
2023-04-24T12:32:28.613Z,5.33
2023-04-24T12:34:57.941Z,5.73
2023-04-24T12:37:27.093Z,5.07
2023-04-24T18:16:00.386Z,2.30
2023-04-24T18:18:28.539Z,2.40
2023-04-24T18:20:56.480Z,2.20
2023-04-24T18:23:24.422Z,1.60
2023-04-24T18:25:52.359Z,2.37
2023-04-24T18:28:20.335Z,1.97
2023-04-24T18:30:48.860Z,2.40
2023-04-24T18:33:19.004Z,1.95
2023-04-24T18:35:47.058Z,1.93
2023-04-24T18:38:14.992Z,2.67
2023-04-24T18:40:43.548Z,2.47
2023-04-24T18:43:11.656Z,2.00
2023-04-24T18:45:39.554Z,2.37
2023-04-24T18:48:07.676Z,2.20
2023-04-24T18:50:38.931Z,2.57
2023-04-24T18:53:07.204Z,2.30
2023-04-24T18:55:35.914Z,2.50
2023-04-24T18:58:03.895Z,2.87
2023-04-24T19:00:31.922Z,2.60
2023-04-24T19:03:00.337Z,2.87
2023-04-24T19:05:28.526Z,2.83
2023-04-24T19:07:57.786Z,2.83
2023-04-24T19:10:26.361Z,2.90
2023-04-24T19:12:56.603Z,2.87
2023-04-24T19:15:25.087Z,3.53
2023-04-24T19:17:53.314Z,3.80
2023-04-24T19:20:21.610Z,3.50
2023-04-24T19:22:49.779Z,3.37
2023-04-24T19:25:19.355Z,3.80
2023-04-24T19:27:47.382Z,3.70
2023-04-24T19:30:15.415Z,3.73
2023-04-24T19:32:43.457Z,3.50
2023-04-24T19:35:11.452Z,3.37
2023-04-24T19:37:40.021Z,3.23
2023-04-24T19:40:09.385Z,3.40
2023-04-24T19:42:44.346Z,4.33
2023-04-24T19:45:13.035Z,3.30
2023-04-24T19:47:41.207Z,3.40
2023-04-24T19:50:09.635Z,3.17
2023-04-24T19:52:37.610Z,3.17
2023-04-24T19:55:06.377Z,3.43
2023-04-24T19:57:34.320Z,3.20
2023-04-24T20:00:04.686Z,3.40
2023-04-24T20:02:33.320Z,3.33
2023-04-24T20:05:01.904Z,2.97
2023-04-24T20:07:30.048Z,3.27
2023-04-24T20:09:58.003Z,3.37
2023-04-24T20:12:25.989Z,3.00
2023-04-24T20:14:53.839Z,2.90
2023-04-24T20:17:23.156Z,3.17
2023-04-24T20:19:51.098Z,2.80
2023-04-24T20:22:19.080Z,3.20
2023-04-24T20:24:47.284Z,3.00
2023-04-24T20:27:15.310Z,3.23
2023-04-24T20:29:43.411Z,3.63
2023-04-24T20:32:11.379Z,3.00
2023-04-24T20:34:40.737Z,3.43
2023-04-24T20:37:08.639Z,3.33
2023-04-24T20:39:36.997Z,2.90
2023-04-24T20:42:05.208Z,3.40
2023-04-24T20:44:33.154Z,3.43
2023-04-24T20:47:01.680Z,3.33
2023-04-24T20:49:29.613Z,3.10
2023-04-24T20:51:59.639Z,4.00
2023-04-24T20:54:27.568Z,3.93
2023-04-24T20:56:55.555Z,3.87
2023-04-24T20:59:23.563Z,3.43
2023-04-24T21:01:51.559Z,3.47
2023-04-24T21:04:19.543Z,3.93
2023-04-24T21:06:47.778Z,3.60
2023-04-24T21:09:17.447Z,4.00
2023-04-24T21:11:45.420Z,3.50
2023-04-24T21:14:13.319Z,3.60
2023-04-24T21:16:41.279Z,3.57
2023-04-24T21:19:09.285Z,3.67
2023-04-24T21:21:37.259Z,3.63
2023-04-24T21:24:05.487Z,3.67
2023-04-24T21:26:35.418Z,4.30
2023-04-24T21:29:03.393Z,3.97
2023-04-24T21:31:31.345Z,4.13
2023-04-24T21:33:59.300Z,4.23
2023-04-24T21:36:27.301Z,3.80
2023-04-24T21:38:55.402Z,4.27
2023-04-24T21:41:24.725Z,3.80
2023-04-24T21:43:54.365Z,5.00
2023-04-24T21:46:22.553Z,4.13
2023-04-24T21:48:50.499Z,3.93
2023-04-24T21:51:20.348Z,3.70
2023-04-24T21:53:48.627Z,4.10
2023-04-24T21:56:17.022Z,4.23
2023-04-24T21:58:44.974Z,4.57
2023-04-24T22:01:15.614Z,5.07
2023-04-24T22:03:47.943Z,3.80
2023-04-24T22:06:16.290Z,4.10
2023-04-24T22:08:47.505Z,3.47
2023-04-24T22:11:25.881Z,4.37
2023-04-24T22:13:55.254Z,4.30
2023-04-24T22:16:25.326Z,4.77
2023-04-24T22:18:55.274Z,5.13
2023-04-24T22:21:23.954Z,4.73
2023-04-24T22:23:52.494Z,4.50
2023-04-24T22:26:20.919Z,4.80
2023-04-24T22:28:48.938Z,5.10
2023-04-24T22:31:17.064Z,4.53
2023-04-24T22:33:47.808Z,4.57
2023-04-24T22:36:16.316Z,4.60
2023-04-24T22:38:44.287Z,5.00
2023-04-24T22:41:12.279Z,5.07
2023-04-24T22:43:40.779Z,5.07
2023-04-24T22:46:08.661Z,5.40
2023-04-24T22:48:36.765Z,5.97
2023-04-24T22:51:06.679Z,5.33
2023-04-24T22:53:36.225Z,5.70
2023-04-24T22:56:04.562Z,5.77
2023-04-24T22:58:33.140Z,5.63
2023-04-24T23:01:01.200Z,6.23
2023-04-24T23:03:29.302Z,5.53
2023-04-24T23:05:57.352Z,6.10
2023-04-24T23:08:26.689Z,5.50
2023-04-24T23:10:54.722Z,6.30
2023-04-24T23:13:22.729Z,5.80
2023-04-24T23:15:51.986Z,5.83
2023-04-24T23:18:21.995Z,6.37
2023-04-24T23:20:50.046Z,5.60
2023-04-24T23:23:18.129Z,6.87
2023-04-24T23:25:47.370Z,5.97
2023-04-24T23:28:15.228Z,6.00
2023-04-24T23:30:43.063Z,6.03
2023-04-24T23:33:11.118Z,6.57
2023-04-24T23:35:39.114Z,6.50
2023-04-24T23:38:07.230Z,6.40
2023-04-24T23:40:35.158Z,7.03
2023-04-24T23:43:07.985Z,6.50
2023-04-24T23:45:37.023Z,6.63
2023-04-24T23:48:05.877Z,6.60
2023-04-24T23:50:34.104Z,6.23
2023-04-24T23:53:02.124Z,6.80
2023-04-24T23:55:30.190Z,6.23
2023-04-24T23:57:58.070Z,6.50
